createdAt,value
2017-11-19T00:06:33.102Z,0
2017-11-19T00:16:32.952Z,0
2017-11-19T00:26:32.923Z,0
2017-11-19T00:36:42.341Z,0
2017-11-19T00:46:32.913Z,0
2017-11-19T00:56:33.017Z,0
2017-11-19T01:06:33.927Z,0
2017-11-19T01:16:32.954Z,0
2017-11-19T01:26:32.973Z,0
2017-11-19T01:36:32.996Z,0
2017-11-19T01:46:32.967Z,0
2017-11-19T01:56:33.262Z,0
2017-11-19T02:06:33.065Z,0
2017-11-19T02:16:32.952Z,0
2017-11-19T02:26:32.936Z,0
2017-11-19T02:36:33.204Z,0
2017-11-19T02:46:33.038Z,0
2017-11-19T02:56:32.956Z,0
2017-11-19T03:06:32.958Z,0
2017-11-19T03:16:33.028Z,0
2017-11-19T03:26:33.041Z,0
2017-11-19T03:36:33.139Z,0
2017-11-19T03:46:33.055Z,0
2017-11-19T03:56:33.067Z,0
2017-11-19T04:06:33.081Z,0
2017-11-19T04:16:33.101Z,0
2017-11-19T04:26:33.049Z,0
2017-11-19T04:36:33.123Z,0
2017-11-19T04:46:33.141Z,0
2017-11-19T04:56:33.063Z,0
2017-11-19T05:06:33.096Z,0
2017-11-19T05:16:33.062Z,0
2017-11-19T05:26:33.381Z,0
2017-11-19T05:36:33.094Z,0
2017-11-19T05:46:33.157Z,0
2017-11-19T05:56:33.434Z,0
2017-11-19T06:06:33.206Z,0
2017-11-19T06:16:33.151Z,0
2017-11-19T06:26:33.182Z,0
2017-11-19T06:36:33.220Z,0
2017-11-19T06:46:33.210Z,0
2017-11-19T06:56:33.986Z,0
2017-11-19T07:06:33.271Z,5
2017-11-19T07:16:33.216Z,10
2017-11-19T07:26:33.119Z,20
2017-11-19T07:36:33.245Z,25
2017-11-19T07:46:33.168Z,40
2017-11-19T07:56:33.286Z,40
2017-11-19T08:06:33.165Z,40
2017-11-19T08:16:33.340Z,50
2017-11-19T08:26:33.265Z,60
2017-11-19T08:36:33.498Z,55
2017-11-19T08:46:33.285Z,60
2017-11-19T08:56:33.330Z,60
2017-11-19T09:06:33.269Z,70
2017-11-19T09:16:33.278Z,65
2017-11-19T09:26:33.689Z,160
2017-11-19T09:36:34.012Z,60
2017-11-19T09:46:33.647Z,75
2017-11-19T09:56:33.354Z,80
2017-11-19T10:06:33.331Z,90
2017-11-19T10:16:33.371Z,75
2017-11-19T10:26:33.447Z,80
2017-11-19T10:36:33.400Z,75
2017-11-19T10:46:33.455Z,85
2017-11-19T10:56:33.356Z,90
2017-11-19T11:06:33.402Z,95
2017-11-19T11:16:33.403Z,80
2017-11-19T11:26:33.376Z,95
2017-11-19T11:36:33.465Z,100
2017-11-19T11:46:33.352Z,105
2017-11-19T11:56:33.543Z,80
2017-11-19T12:06:33.416Z,85
2017-11-19T12:16:33.338Z,70
2017-11-19T12:26:33.793Z,165
2017-11-19T12:36:33.499Z,80
2017-11-19T12:46:33.444Z,70
2017-11-19T12:56:33.583Z,65
2017-11-19T13:06:33.783Z,60
2017-11-19T13:16:33.978Z,55
2017-11-19T13:26:33.840Z,55
2017-11-19T13:36:33.716Z,65
2017-11-19T13:46:34.128Z,70
2017-11-19T13:56:33.533Z,40
2017-11-19T14:06:33.716Z,40
2017-11-19T14:16:34.123Z,40
2017-11-19T14:26:33.989Z,45
2017-11-19T14:36:33.888Z,40
2017-11-19T14:46:34.168Z,35
2017-11-19T14:56:33.873Z,25
2017-11-19T15:06:34.666Z,15
2017-11-19T15:16:34.148Z,10
2017-11-19T15:26:33.900Z,5
2017-11-19T15:36:33.620Z,0
2017-11-19T15:46:34.422Z,0
2017-11-19T15:56:34.378Z,0
2017-11-19T16:06:34.000Z,0
2017-11-19T16:16:33.675Z,0
2017-11-19T16:26:34.741Z,0
2017-11-19T16:36:34.089Z,0
2017-11-19T16:46:33.741Z,0
2017-11-19T16:56:33.962Z,0
2017-11-19T17:06:34.329Z,0
2017-11-19T17:16:34.577Z,0
2017-11-19T17:26:35.936Z,0
2017-11-19T17:36:35.281Z,0
2017-11-19T17:46:34.774Z,0
2017-11-19T17:56:34.751Z,0
2017-11-19T18:06:34.234Z,0
2017-11-19T18:16:34.594Z,0
2017-11-19T18:26:34.272Z,0
2017-11-19T18:36:34.818Z,0
2017-11-19T18:46:35.226Z,0
2017-11-19T18:56:33.974Z,0
2017-11-19T19:06:37.624Z,0
2017-11-19T19:16:34.900Z,0
2017-11-19T19:26:36.069Z,0
2017-11-19T19:36:35.947Z,0
2017-11-19T19:46:34.505Z,0
2017-11-19T19:56:34.849Z,0
2017-11-19T20:06:34.557Z,0
2017-11-19T20:16:37.183Z,0
2017-11-19T20:26:37.817Z,0
2017-11-19T20:36:36.096Z,0
2017-11-19T20:46:35.119Z,0
2017-11-19T20:56:34.857Z,0
2017-11-19T21:06:36.010Z,0
2017-11-19T21:16:35.195Z,0
2017-11-19T21:26:34.939Z,0
2017-11-19T21:36:34.436Z,0
2017-11-19T21:46:34.530Z,0
2017-11-19T21:56:35.631Z,0
2017-11-19T22:06:34.532Z,0
2017-11-19T22:16:34.996Z,0
2017-11-19T22:26:34.783Z,0
2017-11-19T22:36:34.386Z,0
2017-11-19T22:46:33.959Z,0
2017-11-19T23:07:22.828Z,0
2017-11-19T23:08:03.682Z,0
2017-11-19T23:18:04.201Z,0
2017-11-19T23:28:03.439Z,0
2017-11-19T23:38:03.646Z,0
2017-11-19T23:48:03.532Z,0
2017-11-19T23:58:03.524Z,0
